createdAt,value
2023-03-27T00:01:32.604Z,6.54
2023-03-27T00:04:00.369Z,6.16
2023-03-27T00:06:28.257Z,5.80
2023-03-27T00:08:55.945Z,6.34
2023-03-27T00:11:25.064Z,6.68
2023-03-27T00:13:54.751Z,6.64
2023-03-27T00:16:23.997Z,6.56
2023-03-27T00:18:52.921Z,5.86
2023-03-27T00:21:22.453Z,6.37
2023-03-27T00:23:50.288Z,5.04
2023-03-27T00:26:18.192Z,5.63
2023-03-27T00:28:45.990Z,6.13
2023-03-27T00:31:15.077Z,5.84
2023-03-27T00:33:42.910Z,5.54
2023-03-27T00:36:11.098Z,5.23
2023-03-27T00:38:43.677Z,5.82
2023-03-27T00:41:12.676Z,5.29
2023-03-27T00:43:45.125Z,6.04
2023-03-27T00:46:16.008Z,5.60
2023-03-27T00:48:47.091Z,5.54
2023-03-27T00:51:15.278Z,5.21
2023-03-27T00:53:42.969Z,5.58
2023-03-27T00:56:10.718Z,5.99
2023-03-27T00:59:01.442Z,6.07
2023-03-27T01:01:29.707Z,6.14
2023-03-27T01:04:00.649Z,6.21
2023-03-27T01:06:28.871Z,5.62
2023-03-27T01:08:56.582Z,5.41
2023-03-27T01:11:39.550Z,4.49
2023-03-27T01:14:24.988Z,5.56
2023-03-27T01:16:52.610Z,5.17
2023-03-27T01:19:36.483Z,5.86
2023-03-27T01:22:22.965Z,5.49
2023-03-27T01:25:11.991Z,3.68
2023-03-27T01:27:53.160Z,4.90
2023-03-27T01:30:27.184Z,4.32
2023-03-27T01:33:25.892Z,3.96
2023-03-27T01:36:34.813Z,4.99
2023-03-27T01:39:20.951Z,4.81
2023-03-27T01:42:19.103Z,4.79
2023-03-27T01:45:23.175Z,4.43
2023-03-27T01:48:00.756Z,5.18
2023-03-27T01:50:37.809Z,5.76
2023-03-27T01:53:27.439Z,5.06
2023-03-27T01:55:58.834Z,5.82
2023-03-27T01:58:29.913Z,5.77
2023-03-27T02:01:01.352Z,5.41
2023-03-27T02:03:37.676Z,4.82
2023-03-27T02:06:09.012Z,5.19
2023-03-27T02:08:50.182Z,5.23
2023-03-27T02:11:22.317Z,4.78
2023-03-27T02:13:59.324Z,5.57
2023-03-27T02:16:33.806Z,4.88
2023-03-27T02:19:04.242Z,5.08
2023-03-27T02:21:33.366Z,4.71
2023-03-27T02:24:06.075Z,4.45
2023-03-27T02:26:33.905Z,4.94
2023-03-27T02:29:26.074Z,5.26
2023-03-27T02:31:53.773Z,4.92
2023-03-27T02:34:38.401Z,5.01
2023-03-27T02:37:12.104Z,5.13
2023-03-27T02:40:13.674Z,4.79
2023-03-27T02:43:09.162Z,5.35
2023-03-27T02:46:02.695Z,5.65
2023-03-27T02:48:34.395Z,5.07
2023-03-27T02:51:17.276Z,5.31
2023-03-27T02:53:47.577Z,6.06
2023-03-27T02:56:15.350Z,5.33
2023-03-27T02:58:47.527Z,4.02
2023-03-27T03:01:32.228Z,5.20
2023-03-27T03:04:31.358Z,4.62
2023-03-27T03:07:27.980Z,5.58
2023-03-27T03:09:58.291Z,5.67
2023-03-27T03:12:25.996Z,6.15
2023-03-27T03:14:56.529Z,6.05
2023-03-27T03:17:24.421Z,5.22
2023-03-27T03:19:53.753Z,5.37
2023-03-27T03:22:21.641Z,5.57
2023-03-27T03:24:49.370Z,5.24
2023-03-27T03:27:21.033Z,6.20
2023-03-27T03:30:09.448Z,6.30
2023-03-27T03:32:47.475Z,5.79
2023-03-27T03:35:15.592Z,5.82
2023-03-27T03:37:51.128Z,5.33
2023-03-27T03:40:20.025Z,5.39
2023-03-27T03:42:52.507Z,5.73
2023-03-27T03:45:24.722Z,5.87
2023-03-27T03:47:52.484Z,5.54
2023-03-27T03:50:20.353Z,5.05
2023-03-27T03:52:48.106Z,5.43
2023-03-27T03:55:16.175Z,5.74
2023-03-27T03:57:47.604Z,6.22
2023-03-27T04:00:22.940Z,6.45
2023-03-27T04:02:53.817Z,5.96
2023-03-27T04:05:22.111Z,6.18
2023-03-27T04:07:53.059Z,6.04
2023-03-27T04:10:39.615Z,5.57
2023-03-27T04:13:14.909Z,5.96
2023-03-27T04:15:54.021Z,6.40
2023-03-27T04:18:35.363Z,6.20
2023-03-27T04:21:14.775Z,6.33
2023-03-27T04:23:45.228Z,6.67
2023-03-27T04:26:16.099Z,7.02
2023-03-27T04:29:10.323Z,6.88
2023-03-27T04:31:58.543Z,6.70
2023-03-27T04:34:41.657Z,6.72
2023-03-27T04:37:30.516Z,6.79
2023-03-27T04:40:18.161Z,6.12
2023-03-27T04:42:46.324Z,5.33
2023-03-27T04:45:17.327Z,6.39
2023-03-27T04:47:49.033Z,6.62
2023-03-27T04:50:17.272Z,6.26
2023-03-27T04:52:49.707Z,6.66
2023-03-27T04:55:19.714Z,6.13
2023-03-27T04:57:50.325Z,6.67
2023-03-27T05:00:23.653Z,6.93
2023-03-27T05:03:14.251Z,6.69
2023-03-27T05:05:55.839Z,6.21
2023-03-27T05:08:23.763Z,5.92
2023-03-27T05:10:52.048Z,6.66
2023-03-27T05:13:19.838Z,6.51
2023-03-27T05:15:47.808Z,6.72
2023-03-27T05:18:17.893Z,6.22
2023-03-27T05:20:50.753Z,6.63
2023-03-27T05:23:18.522Z,7.01
2023-03-27T05:25:59.661Z,7.13
2023-03-27T05:28:36.669Z,7.00
2023-03-27T05:31:04.692Z,7.07
2023-03-27T05:33:41.006Z,7.38
2023-03-27T05:36:10.199Z,7.48
2023-03-27T05:38:39.552Z,7.49
2023-03-27T05:41:19.309Z,7.13
2023-03-27T05:43:51.305Z,6.73
2023-03-27T05:46:21.719Z,6.46
2023-03-27T05:49:15.428Z,6.99
2023-03-27T05:51:47.551Z,7.61
2023-03-27T05:54:20.750Z,7.44
2023-03-27T05:56:54.653Z,7.74
2023-03-27T05:59:22.904Z,6.87
2023-03-27T06:01:53.653Z,6.86
2023-03-27T06:04:28.503Z,7.62
2023-03-27T06:07:03.028Z,7.99
2023-03-27T06:09:32.745Z,7.70
2023-03-27T06:12:20.647Z,6.92
2023-03-27T06:14:51.520Z,7.05
2023-03-27T06:17:31.847Z,7.45
2023-03-27T06:20:02.830Z,7.98
2023-03-27T06:22:33.154Z,8.15
2023-03-27T06:25:06.528Z,8.77
2023-03-27T06:27:34.789Z,9.38
2023-03-27T06:30:02.621Z,9.75
2023-03-27T06:32:31.280Z,9.70
2023-03-27T06:34:59.532Z,10.11
2023-03-27T06:37:56.712Z,10.52
2023-03-27T06:40:28.024Z,10.89
2023-03-27T06:43:06.539Z,11.02
2023-03-27T06:45:49.907Z,11.56
2023-03-27T06:48:36.723Z,12.73
2023-03-27T06:51:06.797Z,12.66
2023-03-27T06:53:37.891Z,13.16
2023-03-27T06:56:07.378Z,13.66
2023-03-27T06:58:55.094Z,14.25
2023-03-27T07:01:27.719Z,14.58
2023-03-27T07:04:19.019Z,14.47
2023-03-27T07:06:55.684Z,15.00
2023-03-27T07:09:23.542Z,15.14
2023-03-27T07:12:01.106Z,14.87
2023-03-27T07:14:28.891Z,14.53
2023-03-27T07:16:57.123Z,14.53
2023-03-27T07:19:28.504Z,14.82
2023-03-27T07:22:06.695Z,14.95
2023-03-27T07:24:37.797Z,15.53
2023-03-27T07:27:05.829Z,15.21
2023-03-27T07:29:35.364Z,15.27
2023-03-27T07:32:07.191Z,15.57
2023-03-27T07:34:43.453Z,15.64
2023-03-27T07:37:30.151Z,16.25
2023-03-27T07:40:29.469Z,16.35
2023-03-27T07:43:30.718Z,15.94
2023-03-27T07:46:01.521Z,15.92
2023-03-27T07:48:30.502Z,16.41
2023-03-27T07:51:10.583Z,16.02
2023-03-27T07:53:41.656Z,16.79
2023-03-27T07:56:18.251Z,16.08
2023-03-27T07:58:49.044Z,15.92
2023-03-27T08:01:21.534Z,16.45
2023-03-27T08:03:50.199Z,17.38
2023-03-27T08:06:19.971Z,16.33
2023-03-27T08:08:48.189Z,16.12
2023-03-27T08:11:29.533Z,15.61
2023-03-27T08:13:59.029Z,15.46
2023-03-27T08:16:29.975Z,17.08
2023-03-27T08:19:01.271Z,17.21
2023-03-27T08:21:33.339Z,17.13
2023-03-27T08:24:02.747Z,16.44
2023-03-27T08:26:36.835Z,17.92
2023-03-27T08:29:08.997Z,17.42
2023-03-27T08:31:38.740Z,17.28
2023-03-27T08:34:06.932Z,17.25
2023-03-27T08:36:44.170Z,16.46
2023-03-27T08:39:12.914Z,17.59
2023-03-27T08:41:51.976Z,17.16
2023-03-27T08:44:26.037Z,17.82
2023-03-27T08:46:58.438Z,17.83
2023-03-27T08:49:40.090Z,17.72
2023-03-27T08:52:37.389Z,18.09
2023-03-27T08:55:34.443Z,17.68
2023-03-27T08:58:30.158Z,17.54
2023-03-27T09:01:18.032Z,18.28
2023-03-27T09:04:24.960Z,18.24
2023-03-27T09:07:06.194Z,16.64
2023-03-27T09:09:38.860Z,16.77
2023-03-27T09:12:17.921Z,17.32
2023-03-27T09:14:59.930Z,16.34
2023-03-27T09:17:33.635Z,16.64
2023-03-27T09:20:19.184Z,17.14
2023-03-27T09:23:12.610Z,16.59
2023-03-27T09:26:01.130Z,15.58
2023-03-27T09:29:22.102Z,15.06
2023-03-27T09:31:57.589Z,14.40
2023-03-27T09:34:28.471Z,14.39
2023-03-27T09:36:58.155Z,14.02
2023-03-27T09:39:32.724Z,14.74
2023-03-27T09:42:20.780Z,15.10
2023-03-27T09:44:54.405Z,15.01
2023-03-27T09:47:38.232Z,15.02
2023-03-27T09:50:15.281Z,15.29
2023-03-27T09:53:12.966Z,15.11
2023-03-27T09:55:52.970Z,15.15
2023-03-27T09:58:33.935Z,14.27
2023-03-27T10:01:38.410Z,14.38
2023-03-27T10:04:17.279Z,14.57
2023-03-27T10:07:00.119Z,15.17
2023-03-27T10:09:41.090Z,14.52
2023-03-27T10:12:16.815Z,13.75
2023-03-27T10:14:47.283Z,14.06
2023-03-27T10:17:31.016Z,13.59
2023-03-27T10:20:14.262Z,13.89
2023-03-27T10:22:43.917Z,13.60
2023-03-27T10:25:20.662Z,13.89
2023-03-27T10:27:53.877Z,14.32
2023-03-27T10:30:28.076Z,15.00
2023-03-27T10:33:04.318Z,14.72
2023-03-27T10:35:48.049Z,15.09
2023-03-27T10:38:32.093Z,14.54
2023-03-27T10:41:33.745Z,14.83
2023-03-27T10:44:01.544Z,15.06
2023-03-27T10:46:30.113Z,15.38
2023-03-27T10:49:28.767Z,14.43
2023-03-27T10:52:22.063Z,14.46
2023-03-27T10:55:40.051Z,14.57
2023-03-27T10:58:23.646Z,14.66
2023-03-27T11:00:56.270Z,14.52
2023-03-27T11:03:34.896Z,14.61
2023-03-27T11:06:08.052Z,14.77
2023-03-27T11:09:11.933Z,13.94
2023-03-27T11:11:55.823Z,14.18
2023-03-27T11:14:25.516Z,13.27
2023-03-27T11:16:58.718Z,13.40
2023-03-27T11:19:52.639Z,13.25
2023-03-27T11:22:42.193Z,13.40
2023-03-27T11:25:47.396Z,13.07
2023-03-27T11:28:27.840Z,13.19
2023-03-27T11:31:11.861Z,13.22
2023-03-27T11:34:06.232Z,13.18
2023-03-27T11:36:37.761Z,13.67
2023-03-27T11:39:39.065Z,13.80
2023-03-27T11:42:27.611Z,13.72
2023-03-27T11:44:55.896Z,13.46
2023-03-27T11:47:53.251Z,13.71
2023-03-27T11:50:43.029Z,13.93
2023-03-27T11:53:19.967Z,14.04
2023-03-27T11:56:26.338Z,13.81
2023-03-27T11:59:36.574Z,13.03
2023-03-27T12:02:30.506Z,13.72
2023-03-27T12:05:02.787Z,13.83
2023-03-27T12:08:25.332Z,13.30
2023-03-27T12:10:56.232Z,13.42
2023-03-27T12:13:47.784Z,12.78
2023-03-27T12:16:33.452Z,13.24
2023-03-27T12:19:29.816Z,12.70
2023-03-27T12:22:24.279Z,12.39
2023-03-27T12:25:14.201Z,11.31
2023-03-27T12:28:23.754Z,10.93
2023-03-27T12:31:36.215Z,10.79
2023-03-27T12:34:28.447Z,11.11
2023-03-27T12:36:56.285Z,11.34
2023-03-27T12:39:27.695Z,11.39
2023-03-27T12:42:00.872Z,11.67
2023-03-27T12:44:36.081Z,11.51
2023-03-27T12:47:24.646Z,11.32
2023-03-27T12:50:16.911Z,10.87
2023-03-27T12:52:45.716Z,10.45
2023-03-27T12:55:33.341Z,10.78
2023-03-27T12:58:02.052Z,11.06
2023-03-27T13:01:01.273Z,11.07
2023-03-27T13:04:22.187Z,11.12
2023-03-27T13:07:05.095Z,10.65
2023-03-27T13:09:59.652Z,10.11
2023-03-27T13:12:51.528Z,10.83
2023-03-27T13:15:27.170Z,10.30
2023-03-27T13:18:03.537Z,10.62
2023-03-27T13:20:47.010Z,10.92
2023-03-27T13:23:38.903Z,11.16
2023-03-27T13:26:35.426Z,11.20
2023-03-27T13:29:03.726Z,10.97
2023-03-27T13:31:45.509Z,11.39
2023-03-27T13:34:27.539Z,11.75
2023-03-27T13:37:11.704Z,12.11
2023-03-27T13:39:58.788Z,12.06
2023-03-27T13:42:37.954Z,11.82
2023-03-27T13:45:17.551Z,12.12
2023-03-27T13:48:25.659Z,11.93
2023-03-27T13:51:13.089Z,12.43
2023-03-27T13:53:52.822Z,12.63
2023-03-27T13:56:59.418Z,12.54
2023-03-27T14:00:08.308Z,12.46
2023-03-27T14:03:00.169Z,12.61
2023-03-27T14:05:57.082Z,12.78
2023-03-27T14:09:07.948Z,12.93
2023-03-27T14:11:53.956Z,12.58
2023-03-27T14:14:53.070Z,12.34
2023-03-27T14:17:30.352Z,12.33
2023-03-27T14:20:15.173Z,12.09
2023-03-27T14:23:03.468Z,11.00
2023-03-27T14:25:45.514Z,10.41
2023-03-27T14:28:34.759Z,10.53
2023-03-27T14:31:06.384Z,10.60
2023-03-27T14:34:06.502Z,11.13
2023-03-27T14:36:42.317Z,10.10
2023-03-27T14:39:27.953Z,10.25
2023-03-27T14:42:03.400Z,10.23
2023-03-27T14:44:34.861Z,10.27
2023-03-27T14:47:12.063Z,10.12
2023-03-27T14:49:45.348Z,10.67
2023-03-27T14:52:29.324Z,10.59
2023-03-27T14:55:34.418Z,11.18
2023-03-27T14:58:22.537Z,11.23
2023-03-27T15:00:58.018Z,11.49
2023-03-27T15:03:30.397Z,11.97
2023-03-27T15:06:04.544Z,12.20
2023-03-27T15:08:46.647Z,12.30
2023-03-27T15:11:27.371Z,12.13
2023-03-27T15:14:06.152Z,11.74
2023-03-27T15:16:35.887Z,11.29
2023-03-27T15:19:12.262Z,11.01
2023-03-27T15:21:51.045Z,10.64
2023-03-27T15:24:31.562Z,10.25
2023-03-27T15:27:02.910Z,10.00
2023-03-27T15:29:42.776Z,9.83
2023-03-27T15:32:14.624Z,10.18
2023-03-27T15:34:56.719Z,9.78
2023-03-27T15:37:25.816Z,9.72
2023-03-27T15:40:04.251Z,9.77
2023-03-27T15:42:43.938Z,9.63
2023-03-27T15:45:12.519Z,9.83
2023-03-27T15:47:40.588Z,9.63
2023-03-27T15:50:19.368Z,9.64
2023-03-27T15:52:51.397Z,9.61
2023-03-27T15:55:44.272Z,9.83
2023-03-27T15:58:23.759Z,9.75
2023-03-27T16:00:53.328Z,9.31
2023-03-27T16:03:24.468Z,9.40
2023-03-27T16:05:56.474Z,9.66
2023-03-27T16:08:36.955Z,9.22
2023-03-27T16:11:04.955Z,9.04
2023-03-27T16:13:43.756Z,9.52
2023-03-27T16:16:23.079Z,9.56
2023-03-27T16:18:51.504Z,9.35
2023-03-27T16:21:23.300Z,9.65
2023-03-27T16:23:51.213Z,9.58
2023-03-27T16:26:22.649Z,9.33
2023-03-27T16:28:50.573Z,9.35
2023-03-27T16:31:19.076Z,8.90
2023-03-27T16:33:47.222Z,9.04
2023-03-27T16:36:16.174Z,9.27
2023-03-27T16:38:43.985Z,9.27
2023-03-27T16:41:13.526Z,9.47
2023-03-27T16:43:41.763Z,9.42
2023-03-27T16:46:22.437Z,9.37
2023-03-27T16:48:51.208Z,9.14
2023-03-27T16:51:19.651Z,9.67
2023-03-27T16:53:47.336Z,9.85
2023-03-27T16:56:15.074Z,10.15
2023-03-27T16:58:43.044Z,9.80
2023-03-27T17:01:10.843Z,10.40
2023-03-27T17:03:38.755Z,10.70
2023-03-27T17:06:08.240Z,10.86
2023-03-27T17:08:36.600Z,10.86
2023-03-27T17:11:09.082Z,11.08
2023-03-27T17:13:37.371Z,11.20
2023-03-27T17:16:05.596Z,11.09
2023-03-27T17:18:34.775Z,11.03
2023-03-27T17:21:02.471Z,11.11
2023-03-27T17:23:31.551Z,10.29
2023-03-27T17:26:03.179Z,10.86
2023-03-27T17:28:31.101Z,10.89
2023-03-27T17:31:04.822Z,11.01
2023-03-27T17:33:33.523Z,10.91
2023-03-27T17:36:01.683Z,10.93
2023-03-27T17:38:30.003Z,11.00
2023-03-27T17:40:57.799Z,10.98
2023-03-27T17:43:25.465Z,10.89
2023-03-27T17:45:53.232Z,10.94
2023-03-27T17:48:20.945Z,10.74
2023-03-27T17:51:01.250Z,10.78
2023-03-27T17:53:37.424Z,10.60
2023-03-27T17:56:05.909Z,10.36
2023-03-27T17:58:34.442Z,10.64
2023-03-27T18:01:12.294Z,10.71
2023-03-27T18:03:40.347Z,10.67
2023-03-27T18:06:08.462Z,10.55
2023-03-27T18:08:36.137Z,10.31
2023-03-27T18:11:07.775Z,10.01
2023-03-27T18:13:35.941Z,9.63
2023-03-27T18:16:07.026Z,9.83
2023-03-27T18:18:35.140Z,7.83
2023-03-27T18:21:02.960Z,7.16
2023-03-27T18:23:31.469Z,7.10
2023-03-27T18:26:02.473Z,7.07
2023-03-27T18:28:30.255Z,7.32
2023-03-27T18:31:04.946Z,7.58
2023-03-27T18:33:32.717Z,7.39
2023-03-27T18:36:01.094Z,7.89
2023-03-27T18:38:29.158Z,7.69
2023-03-27T18:40:57.888Z,7.09
2023-03-27T18:43:25.930Z,6.83
2023-03-27T18:45:57.620Z,7.11
2023-03-27T18:48:26.281Z,7.40
2023-03-27T18:50:55.392Z,7.54
2023-03-27T18:53:23.258Z,7.07
2023-03-27T18:55:51.496Z,6.83
2023-03-27T18:58:19.816Z,6.98
2023-03-27T19:00:47.648Z,6.96
2023-03-27T19:03:17.922Z,6.67
2023-03-27T19:05:46.171Z,7.07
2023-03-27T19:08:14.582Z,6.95
2023-03-27T19:10:42.340Z,6.93
2023-03-27T19:13:22.936Z,7.29
2023-03-27T19:15:50.683Z,7.21
2023-03-27T19:18:36.990Z,7.84
2023-03-27T19:21:30.923Z,8.25
2023-03-27T19:24:07.028Z,8.09
2023-03-27T19:26:41.870Z,8.57
2023-03-27T19:29:09.751Z,8.44
2023-03-27T19:31:37.500Z,8.42
2023-03-27T19:34:05.275Z,8.68
2023-03-27T19:36:33.276Z,8.77
2023-03-27T19:39:01.049Z,8.00
2023-03-27T19:41:28.868Z,7.39
2023-03-27T19:43:58.339Z,8.32
2023-03-27T19:46:29.296Z,8.91
2023-03-27T19:48:58.333Z,9.14
2023-03-27T19:51:36.024Z,9.26
2023-03-27T19:54:03.890Z,9.49
2023-03-27T19:56:31.694Z,9.52
2023-03-27T19:58:59.725Z,8.80
2023-03-27T20:01:28.546Z,9.20
2023-03-27T20:03:57.382Z,9.15
2023-03-27T20:06:26.095Z,9.23
2023-03-27T20:08:53.835Z,9.42
2023-03-27T20:11:21.854Z,9.36
2023-03-27T20:13:56.117Z,9.51
2023-03-27T20:16:26.284Z,9.45
2023-03-27T20:18:55.450Z,9.07
2023-03-27T20:21:24.685Z,9.16
2023-03-27T20:23:55.654Z,9.22
2023-03-27T20:26:32.480Z,9.39
2023-03-27T20:29:11.919Z,9.60
2023-03-27T20:31:40.091Z,9.59
2023-03-27T20:34:07.837Z,9.43
2023-03-27T20:36:35.625Z,9.55
2023-03-27T20:39:14.589Z,9.63
2023-03-27T20:41:42.348Z,9.67
2023-03-27T20:44:16.409Z,9.78
2023-03-27T20:46:47.825Z,9.24
2023-03-27T20:49:37.464Z,9.51
2023-03-27T20:52:11.794Z,9.42
2023-03-27T20:54:39.602Z,9.14
2023-03-27T20:57:10.479Z,9.49
2023-03-27T20:59:38.283Z,9.10
2023-03-27T21:02:06.201Z,8.99
2023-03-27T21:04:34.018Z,9.22
2023-03-27T21:07:01.780Z,9.01
2023-03-27T21:09:29.525Z,9.25
2023-03-27T21:11:57.708Z,9.51
2023-03-27T21:14:25.584Z,9.65
2023-03-27T21:16:53.463Z,9.40
2023-03-27T21:19:22.006Z,9.27
2023-03-27T21:21:50.374Z,9.25
2023-03-27T21:24:19.462Z,9.21
2023-03-27T21:26:48.538Z,9.33
2023-03-27T21:29:16.336Z,9.65
2023-03-27T21:31:44.105Z,9.53
2023-03-27T21:34:11.918Z,8.77
2023-03-27T21:36:39.662Z,9.06
2023-03-27T21:39:08.592Z,9.21
2023-03-27T21:41:36.726Z,8.81
2023-03-27T21:44:04.526Z,8.79
2023-03-27T21:46:32.257Z,9.07
2023-03-27T21:49:00.306Z,8.87
2023-03-27T21:51:28.036Z,8.67
2023-03-27T21:53:55.816Z,8.68
2023-03-27T21:56:23.494Z,8.39
2023-03-27T21:58:51.221Z,8.82
2023-03-27T22:01:19.002Z,8.32
2023-03-27T22:03:46.797Z,7.65
2023-03-27T22:06:15.083Z,8.35
2023-03-27T22:08:43.222Z,7.56
2023-03-27T22:11:11.558Z,7.49
2023-03-27T22:13:39.442Z,7.58
2023-03-27T22:16:11.972Z,8.32
2023-03-27T22:18:40.116Z,8.33
2023-03-27T22:21:13.648Z,8.18
2023-03-27T22:23:41.462Z,7.95
2023-03-27T22:26:09.219Z,8.62
2023-03-27T22:28:37.024Z,8.71
2023-03-27T22:31:05.024Z,8.76
2023-03-27T22:33:32.828Z,8.85
2023-03-27T22:36:01.239Z,8.94
2023-03-27T22:38:30.567Z,8.70
2023-03-27T22:40:58.428Z,8.96
2023-03-27T22:43:28.200Z,8.57
2023-03-27T22:45:56.435Z,8.96
2023-03-27T22:48:24.299Z,7.94
2023-03-27T22:50:55.557Z,7.53
2023-03-27T22:53:24.325Z,8.12
2023-03-27T22:55:53.183Z,8.15
2023-03-27T22:58:21.538Z,8.07
2023-03-27T23:00:49.917Z,8.24
2023-03-27T23:03:17.942Z,8.32
2023-03-27T23:05:48.305Z,8.44
2023-03-27T23:08:17.301Z,8.74
2023-03-27T23:10:45.001Z,8.90
2023-03-27T23:13:12.846Z,8.59
2023-03-27T23:15:40.809Z,8.64
2023-03-27T23:18:08.541Z,8.64
2023-03-27T23:20:37.085Z,8.59
2023-03-27T23:23:04.837Z,8.51
2023-03-27T23:25:32.540Z,8.06
2023-03-27T23:28:00.264Z,8.18
2023-03-27T23:30:27.956Z,8.37
2023-03-27T23:32:55.674Z,8.37
2023-03-27T23:35:23.422Z,7.97
2023-03-27T23:37:51.138Z,7.69
2023-03-27T23:40:18.795Z,8.16
2023-03-27T23:42:46.519Z,8.19
2023-03-27T23:45:14.177Z,8.07
2023-03-27T23:47:41.952Z,8.45
2023-03-27T23:50:09.822Z,8.50
2023-03-27T23:52:37.598Z,8.32
2023-03-27T23:55:05.912Z,8.59
2023-03-27T23:57:33.586Z,8.64
